createdAt,value
2019-01-30T00:01:51.071Z,86.20
2019-01-30T00:04:23.468Z,85.50
2019-01-30T00:06:56.972Z,86.40
2019-01-30T00:09:29.530Z,87.50
2019-01-30T00:12:02.780Z,86.60
2019-01-30T00:14:35.446Z,86.10
2019-01-30T00:17:08.185Z,86.40
2019-01-30T00:19:41.523Z,85.30
2019-01-30T00:22:14.384Z,83.90
2019-01-30T00:24:46.732Z,83.40
2019-01-30T00:27:19.167Z,83.00
2019-01-30T00:29:51.813Z,82.10
2019-01-30T00:32:24.115Z,81.60
2019-01-30T00:34:56.430Z,82.00
2019-01-30T00:37:28.521Z,82.10
2019-01-30T00:40:01.278Z,80.40
2019-01-30T00:42:33.706Z,78.90
2019-01-30T00:45:07.849Z,76.90
2019-01-30T00:47:40.454Z,76.60
2019-01-30T00:50:16.141Z,76.50
2019-01-30T00:52:48.835Z,76.60
2019-01-30T00:55:22.328Z,77.60
2019-01-30T00:57:55.310Z,77.70
2019-01-30T01:00:30.122Z,77.30
2019-01-30T01:03:03.660Z,76.40
2019-01-30T01:05:35.924Z,75.80
2019-01-30T01:08:08.237Z,74.70
2019-01-30T01:10:41.015Z,74.20
2019-01-30T01:13:14.586Z,73.90
2019-01-30T01:15:47.481Z,72.80
2019-01-30T01:18:21.532Z,72.10
2019-01-30T01:20:53.726Z,72.30
2019-01-30T01:23:25.950Z,72.80
2019-01-30T01:25:58.317Z,71.40
2019-01-30T01:28:30.834Z,71.10
2019-01-30T01:31:03.119Z,70.20
2019-01-30T01:33:35.636Z,70.30
2019-01-30T01:36:08.210Z,69.20
2019-01-30T01:38:40.861Z,68.60
2019-01-30T01:41:13.922Z,67.60
2019-01-30T01:44:07.202Z,66.90
2019-01-30T01:46:40.154Z,67.80
2019-01-30T01:49:13.225Z,67.40
2019-01-30T01:51:46.272Z,67.40
2019-01-30T01:54:18.708Z,67.10
2019-01-30T01:56:50.893Z,66.40
2019-01-30T01:59:23.392Z,65.40
2019-01-30T02:01:55.690Z,65.90
2019-01-30T02:04:28.681Z,64.80
2019-01-30T02:07:00.877Z,64.30
2019-01-30T02:09:33.361Z,64.30
2019-01-30T02:12:05.547Z,64.00
2019-01-30T02:14:38.063Z,63.40
2019-01-30T02:17:10.357Z,64.20
2019-01-30T02:19:43.001Z,63.20
2019-01-30T02:22:15.398Z,62.60
2019-01-30T02:24:48.396Z,61.80
2019-01-30T02:27:20.688Z,61.70
2019-01-30T02:29:53.114Z,62.60
2019-01-30T02:32:25.655Z,60.30
2019-01-30T02:34:57.998Z,59.90
2019-01-30T02:37:30.674Z,60.40
2019-01-30T02:40:02.872Z,60.40
2019-01-30T02:42:35.436Z,60.20
2019-01-30T02:45:10.389Z,60.00
2019-01-30T02:47:43.122Z,59.90
2019-01-30T02:50:17.554Z,59.50
2019-01-30T02:52:50.045Z,58.90
2019-01-30T02:55:22.767Z,58.30
2019-01-30T02:57:55.685Z,57.20
2019-01-30T03:00:30.169Z,56.90
2019-01-30T03:03:02.744Z,55.70
2019-01-30T03:05:35.272Z,56.00
2019-01-30T03:08:08.349Z,56.30
2019-01-30T03:10:41.182Z,55.90
2019-01-30T03:13:13.632Z,55.80
2019-01-30T03:15:46.088Z,54.70
2019-01-30T03:18:18.260Z,54.10
2019-01-30T03:20:50.573Z,55.10
2019-01-30T03:23:22.895Z,53.20
2019-01-30T03:25:55.096Z,51.90
2019-01-30T03:28:27.213Z,51.90
2019-01-30T03:31:15.622Z,52.70
2019-01-30T03:33:33.221Z,52.10
2019-01-30T03:36:05.952Z,51.40
2019-01-30T03:38:38.042Z,51.90
2019-01-30T03:41:10.429Z,51.30
2019-01-30T03:43:42.510Z,50.90
2019-01-30T03:46:15.562Z,51.60
2019-01-30T03:48:47.842Z,49.50
2019-01-30T03:51:20.169Z,49.30
2019-01-30T03:53:52.725Z,48.80
2019-01-30T03:56:25.722Z,48.40
2019-01-30T03:58:58.416Z,48.40
2019-01-30T04:01:30.707Z,48.00
2019-01-30T04:04:03.408Z,46.30
2019-01-30T04:06:35.743Z,47.50
2019-01-30T04:09:09.177Z,46.30
2019-01-30T04:11:41.598Z,46.30
2019-01-30T04:14:14.493Z,46.40
2019-01-30T04:16:46.905Z,45.10
2019-01-30T04:19:19.234Z,46.20
2019-01-30T04:21:51.759Z,45.10
2019-01-30T04:24:23.848Z,44.50
2019-01-30T04:26:56.185Z,46.20
2019-01-30T04:29:28.379Z,44.50
2019-01-30T04:32:00.562Z,45.20
2019-01-30T04:34:32.759Z,44.10
2019-01-30T04:37:05.061Z,43.80
2019-01-30T04:39:37.258Z,45.00
2019-01-30T04:42:09.672Z,44.00
2019-01-30T04:44:42.047Z,44.80
2019-01-30T04:47:14.912Z,43.40
2019-01-30T04:49:47.438Z,42.90
2019-01-30T04:52:20.112Z,43.10
2019-01-30T04:54:52.588Z,44.50
2019-01-30T04:57:25.536Z,42.40
2019-01-30T04:59:57.733Z,42.80
2019-01-30T05:02:30.380Z,40.60
2019-01-30T05:05:02.590Z,41.10
2019-01-30T05:07:34.770Z,40.90
2019-01-30T05:10:09.528Z,43.10
2019-01-30T05:12:41.994Z,42.20
2019-01-30T05:15:16.769Z,40.80
2019-01-30T05:17:49.047Z,40.80
2019-01-30T05:20:22.532Z,40.30
2019-01-30T05:22:55.091Z,40.70
2019-01-30T05:25:27.393Z,43.30
2019-01-30T05:27:59.608Z,40.60
2019-01-30T05:30:34.112Z,40.60
2019-01-30T05:33:06.780Z,40.30
2019-01-30T05:35:39.046Z,40.50
2019-01-30T05:38:11.961Z,39.00
2019-01-30T05:40:45.164Z,38.10
2019-01-30T05:43:17.490Z,40.40
2019-01-30T05:45:51.032Z,39.70
2019-01-30T05:48:23.344Z,38.40
2019-01-30T05:50:55.818Z,37.10
2019-01-30T05:53:28.179Z,36.90
2019-01-30T05:56:00.627Z,36.50
2019-01-30T05:58:32.820Z,34.90
2019-01-30T06:01:05.402Z,39.40
2019-01-30T06:03:37.958Z,39.80
2019-01-30T06:06:10.274Z,38.90
2019-01-30T06:08:42.866Z,38.90
2019-01-30T06:11:15.354Z,37.80
2019-01-30T06:13:47.931Z,35.30
2019-01-30T06:16:20.329Z,37.10
2019-01-30T06:18:52.819Z,37.10
2019-01-30T06:21:25.632Z,39.00
2019-01-30T06:23:58.091Z,38.70
2019-01-30T06:26:30.355Z,37.90
2019-01-30T06:29:03.354Z,37.50
2019-01-30T06:31:35.477Z,38.00
2019-01-30T06:34:08.348Z,38.60
2019-01-30T06:36:40.431Z,40.20
2019-01-30T06:39:13.349Z,38.20
2019-01-30T06:41:45.724Z,40.60
2019-01-30T06:44:18.488Z,38.00
2019-01-30T06:46:50.813Z,36.60
2019-01-30T06:49:23.752Z,36.60
2019-01-30T06:51:56.063Z,36.30
2019-01-30T06:54:28.815Z,36.10
2019-01-30T06:57:01.413Z,35.00
2019-01-30T06:59:33.634Z,35.00
2019-01-30T07:02:06.655Z,34.40
2019-01-30T07:04:38.867Z,35.40
2019-01-30T07:07:11.444Z,35.30
2019-01-30T07:09:43.675Z,36.10
2019-01-30T07:12:16.210Z,35.00
2019-01-30T07:14:48.519Z,35.40
2019-01-30T07:17:21.563Z,34.50
2019-01-30T07:19:53.853Z,35.20
2019-01-30T07:22:26.434Z,34.40
2019-01-30T07:24:59.028Z,35.20
2019-01-30T07:27:31.559Z,32.60
2019-01-30T07:30:04.385Z,33.60
2019-01-30T07:32:42.235Z,34.40
2019-01-30T07:35:11.876Z,35.60
2019-01-30T07:37:44.290Z,34.50
2019-01-30T07:40:18.204Z,34.70
2019-01-30T07:42:50.863Z,34.70
2019-01-30T07:45:25.571Z,35.10
2019-01-30T07:47:58.044Z,36.20
2019-01-30T07:50:30.454Z,34.60
2019-01-30T07:53:03.101Z,33.10
2019-01-30T07:55:35.646Z,33.80
2019-01-30T07:58:08.222Z,35.10
2019-01-30T08:00:40.867Z,34.00
2019-01-30T08:03:13.090Z,34.00
2019-01-30T08:05:45.649Z,33.10
2019-01-30T08:08:18.987Z,34.60
2019-01-30T08:10:51.445Z,33.30
2019-01-30T08:13:23.752Z,34.30
2019-01-30T08:15:56.513Z,33.40
2019-01-30T08:18:29.107Z,35.90
2019-01-30T08:21:02.041Z,35.20
2019-01-30T08:23:34.458Z,35.80
2019-01-30T08:26:07.415Z,35.00
2019-01-30T08:28:40.304Z,35.60
2019-01-30T08:31:13.011Z,35.30
2019-01-30T08:33:45.603Z,35.50
2019-01-30T08:36:18.113Z,36.30
2019-01-30T08:38:50.499Z,37.00
2019-01-30T08:41:23.371Z,35.50
2019-01-30T08:43:57.940Z,37.20
2019-01-30T08:46:29.419Z,36.60
2019-01-30T08:49:01.950Z,37.70
2019-01-30T08:51:35.054Z,39.10
2019-01-30T08:54:07.916Z,37.30
2019-01-30T08:56:52.395Z,37.30
2019-01-30T08:59:14.361Z,37.80
2019-01-30T09:01:46.771Z,37.10
2019-01-30T09:04:19.202Z,39.00
2019-01-30T09:06:52.361Z,37.80
2019-01-30T09:09:24.819Z,37.60
2019-01-30T09:11:57.892Z,38.20
2019-01-30T09:14:30.627Z,39.90
2019-01-30T09:17:06.549Z,38.40
2019-01-30T09:19:36.645Z,39.50
2019-01-30T09:22:09.294Z,39.10
2019-01-30T09:24:42.326Z,39.90
2019-01-30T09:27:15.448Z,38.40
2019-01-30T09:29:47.934Z,37.40
2019-01-30T09:32:20.519Z,37.00
2019-01-30T09:34:52.878Z,37.00
2019-01-30T09:37:27.304Z,36.80
2019-01-30T09:39:58.910Z,36.80
2019-01-30T09:42:31.136Z,37.00
2019-01-30T09:45:03.289Z,37.50
2019-01-30T09:47:35.582Z,37.60
2019-01-30T09:50:10.005Z,38.40
2019-01-30T09:52:42.534Z,37.70
2019-01-30T09:55:16.486Z,39.50
2019-01-30T09:57:49.604Z,38.80
2019-01-30T10:00:24.785Z,37.20
2019-01-30T10:02:57.328Z,37.40
2019-01-30T10:05:29.955Z,37.10
2019-01-30T10:08:02.705Z,37.10
2019-01-30T10:10:37.619Z,37.50
2019-01-30T10:13:10.408Z,37.10
2019-01-30T10:15:45.770Z,37.70
2019-01-30T10:18:18.008Z,37.40
2019-01-30T10:20:50.818Z,37.80
2019-01-30T10:23:23.537Z,37.70
2019-01-30T10:25:55.957Z,37.60
2019-01-30T10:28:28.660Z,37.90
2019-01-30T10:31:01.391Z,39.10
2019-01-30T10:33:33.559Z,39.10
2019-01-30T10:36:06.368Z,39.30
2019-01-30T10:38:38.507Z,39.30
2019-01-30T10:41:10.894Z,39.50
2019-01-30T10:43:43.192Z,39.50
2019-01-30T10:46:15.756Z,40.30
2019-01-30T10:48:48.159Z,44.00
2019-01-30T10:51:20.971Z,44.00
2019-01-30T10:53:53.569Z,42.70
2019-01-30T10:56:26.097Z,43.50
2019-01-30T10:58:58.408Z,47.30
2019-01-30T11:01:30.960Z,48.40
2019-01-30T11:04:03.169Z,47.10
2019-01-30T11:06:35.389Z,48.40
2019-01-30T11:09:09.634Z,48.90
2019-01-30T11:11:42.148Z,48.60
2019-01-30T11:14:14.559Z,48.60
2019-01-30T11:16:47.454Z,49.00
2019-01-30T11:19:19.804Z,47.90
2019-01-30T11:21:52.186Z,47.20
2019-01-30T11:24:24.756Z,47.30
2019-01-30T11:26:57.229Z,47.20
2019-01-30T11:29:29.519Z,48.00
2019-01-30T11:32:02.078Z,48.70
2019-01-30T11:34:34.426Z,49.70
2019-01-30T11:37:06.958Z,49.10
2019-01-30T11:39:39.380Z,50.00
2019-01-30T11:42:12.033Z,49.80
2019-01-30T11:44:44.256Z,50.30
2019-01-30T11:47:16.770Z,51.40
2019-01-30T11:49:49.116Z,51.00
2019-01-30T11:52:21.931Z,50.10
2019-01-30T11:54:54.130Z,50.00
2019-01-30T11:57:26.600Z,50.60
2019-01-30T11:59:58.981Z,51.50
2019-01-30T12:02:31.725Z,52.10
2019-01-30T12:05:04.024Z,51.60
2019-01-30T12:07:36.707Z,51.50
2019-01-30T12:10:13.037Z,52.60
2019-01-30T12:12:45.167Z,52.40
2019-01-30T12:15:19.719Z,53.20
2019-01-30T12:17:52.366Z,53.60
2019-01-30T12:20:25.070Z,53.30
2019-01-30T12:22:57.826Z,52.60
2019-01-30T12:25:30.283Z,53.40
2019-01-30T12:28:02.910Z,53.80
2019-01-30T12:30:35.527Z,53.80
2019-01-30T12:33:07.889Z,54.40
2019-01-30T12:35:40.864Z,54.90
2019-01-30T12:38:13.089Z,54.50
2019-01-30T12:40:45.748Z,55.00
2019-01-30T12:43:18.097Z,55.20
2019-01-30T12:45:50.582Z,56.40
2019-01-30T12:48:22.883Z,56.10
2019-01-30T12:50:55.914Z,56.00
2019-01-30T12:53:28.166Z,56.00
2019-01-30T12:56:00.466Z,56.30
2019-01-30T12:58:32.969Z,56.10
2019-01-30T13:01:05.692Z,56.80
2019-01-30T13:03:38.781Z,58.80
2019-01-30T13:06:11.374Z,58.10
2019-01-30T13:08:44.029Z,56.60
2019-01-30T13:11:16.744Z,56.20
2019-01-30T13:13:49.567Z,58.00
2019-01-30T13:16:22.167Z,58.80
2019-01-30T13:18:54.509Z,58.00
2019-01-30T13:21:27.821Z,57.50
2019-01-30T13:24:00.556Z,57.30
2019-01-30T13:26:33.007Z,59.60
2019-01-30T13:29:05.952Z,59.10
2019-01-30T13:31:38.385Z,59.20
2019-01-30T13:34:11.042Z,59.40
2019-01-30T13:36:43.239Z,59.60
2019-01-30T13:39:15.930Z,59.20
2019-01-30T13:41:49.055Z,58.60
2019-01-30T13:44:21.672Z,58.90
2019-01-30T13:46:54.217Z,59.20
2019-01-30T13:49:26.743Z,58.20
2019-01-30T13:51:59.292Z,58.20
2019-01-30T13:54:31.703Z,59.10
2019-01-30T13:57:04.302Z,57.70
2019-01-30T13:59:36.732Z,59.50
2019-01-30T14:02:09.414Z,57.60
2019-01-30T14:04:42.264Z,58.50
2019-01-30T14:07:14.804Z,59.60
2019-01-30T14:09:47.537Z,60.70
2019-01-30T14:12:19.893Z,60.70
2019-01-30T14:14:52.498Z,62.20
2019-01-30T14:17:24.868Z,60.80
2019-01-30T14:19:57.928Z,61.60
2019-01-30T14:22:30.642Z,61.60
2019-01-30T14:25:03.187Z,62.10
2019-01-30T14:27:35.460Z,62.10
2019-01-30T14:30:10.228Z,61.60
2019-01-30T14:32:42.362Z,61.60
2019-01-30T14:35:14.821Z,61.90
2019-01-30T14:37:47.762Z,62.20
2019-01-30T14:40:22.573Z,62.40
2019-01-30T14:42:55.386Z,62.20
2019-01-30T14:45:27.990Z,62.90
2019-01-30T14:48:02.481Z,63.10
2019-01-30T14:50:35.121Z,62.90
2019-01-30T14:53:07.479Z,63.00
2019-01-30T14:55:40.077Z,63.20
2019-01-30T14:58:13.235Z,63.20
2019-01-30T15:00:45.695Z,63.90
2019-01-30T15:03:18.414Z,64.20
2019-01-30T15:05:50.838Z,64.10
2019-01-30T15:08:23.169Z,64.80
2019-01-30T15:10:55.572Z,65.40
2019-01-30T15:13:27.769Z,64.70
2019-01-30T15:16:01.384Z,65.20
2019-01-30T15:18:33.585Z,65.30
2019-01-30T15:21:06.527Z,65.20
2019-01-30T15:23:38.798Z,65.60
2019-01-30T15:26:11.539Z,66.10
2019-01-30T15:28:44.078Z,66.00
2019-01-30T15:31:16.556Z,66.40
2019-01-30T15:33:49.946Z,65.70
2019-01-30T15:36:23.073Z,65.70
2019-01-30T15:38:55.466Z,65.20
2019-01-30T15:41:27.861Z,66.60
2019-01-30T15:44:00.841Z,67.00
2019-01-30T15:46:33.282Z,67.80
2019-01-30T15:49:06.424Z,67.70
2019-01-30T15:51:38.672Z,67.40
2019-01-30T15:54:11.179Z,67.70
2019-01-30T15:56:43.672Z,68.00
2019-01-30T15:59:16.423Z,67.50
2019-01-30T16:01:49.602Z,67.20
2019-01-30T16:04:22.049Z,67.70
2019-01-30T16:06:54.640Z,68.20
2019-01-30T16:09:27.300Z,67.90
2019-01-30T16:11:59.462Z,68.20
2019-01-30T16:14:31.754Z,67.90
2019-01-30T16:17:04.120Z,68.30
2019-01-30T16:19:36.846Z,68.60
2019-01-30T16:22:09.302Z,69.90
2019-01-30T16:24:42.146Z,69.60
2019-01-30T16:27:14.672Z,69.00
2019-01-30T16:29:48.456Z,70.10
2019-01-30T16:32:21.202Z,71.20
2019-01-30T16:34:53.530Z,72.20
2019-01-30T16:37:25.978Z,72.80
2019-01-30T16:39:58.593Z,73.80
2019-01-30T16:42:31.130Z,73.50
2019-01-30T16:45:03.367Z,72.90
2019-01-30T16:47:35.740Z,72.90
2019-01-30T16:50:10.942Z,72.20
2019-01-30T16:52:43.624Z,72.10
2019-01-30T16:55:18.762Z,72.10
2019-01-30T16:57:51.576Z,72.00
2019-01-30T17:00:26.270Z,71.60
2019-01-30T17:02:58.981Z,72.30
2019-01-30T17:05:32.436Z,72.60
2019-01-30T17:08:04.730Z,72.20
2019-01-30T17:10:37.709Z,71.70
2019-01-30T17:13:12.712Z,71.30
2019-01-30T17:15:44.119Z,71.00
2019-01-30T17:18:16.931Z,70.30
2019-01-30T17:20:49.508Z,70.80
2019-01-30T17:23:21.817Z,71.70
2019-01-30T17:25:54.597Z,72.10
2019-01-30T17:28:26.967Z,72.10
2019-01-30T17:31:02.224Z,71.90
2019-01-30T17:33:34.654Z,72.10
2019-01-30T17:36:17.958Z,73.50
2019-01-30T17:38:40.847Z,73.70
2019-01-30T17:41:13.144Z,73.70
2019-01-30T17:43:45.493Z,73.70
2019-01-30T17:46:17.937Z,74.00
2019-01-30T17:48:50.906Z,74.10
2019-01-30T17:51:23.401Z,74.80
2019-01-30T17:53:56.066Z,74.60
2019-01-30T17:56:28.475Z,74.30
2019-01-30T17:59:02.062Z,73.40
2019-01-30T18:01:34.542Z,72.90
2019-01-30T18:04:07.484Z,73.10
2019-01-30T18:06:39.793Z,74.20
2019-01-30T18:09:12.129Z,75.10
2019-01-30T18:11:44.357Z,74.30
2019-01-30T18:14:16.965Z,74.30
2019-01-30T18:16:49.654Z,74.80
2019-01-30T18:19:22.058Z,74.50
2019-01-30T18:21:54.404Z,74.20
2019-01-30T18:24:26.754Z,74.60
2019-01-30T18:26:59.216Z,74.40
2019-01-30T18:29:32.212Z,75.00
2019-01-30T18:32:04.819Z,75.50
2019-01-30T18:34:37.136Z,74.90
2019-01-30T18:37:09.571Z,75.30
2019-01-30T18:39:41.768Z,76.60
2019-01-30T18:42:14.230Z,76.30
2019-01-30T18:44:46.746Z,75.80
2019-01-30T18:47:19.260Z,76.00
2019-01-30T18:49:52.571Z,76.10
2019-01-30T18:52:25.316Z,76.40
2019-01-30T18:54:57.999Z,76.40
2019-01-30T18:57:30.555Z,77.40
2019-01-30T19:00:03.005Z,77.70
2019-01-30T19:02:36.379Z,77.50
2019-01-30T19:05:11.787Z,77.00
2019-01-30T19:07:45.108Z,76.70
2019-01-30T19:10:19.451Z,77.40
2019-01-30T19:12:51.819Z,77.00
2019-01-30T19:15:26.457Z,77.10
2019-01-30T19:17:58.800Z,79.10
2019-01-30T19:20:33.884Z,79.20
2019-01-30T19:23:07.006Z,78.90
2019-01-30T19:25:40.079Z,80.20
2019-01-30T19:28:12.505Z,80.70
2019-01-30T19:30:45.231Z,79.40
2019-01-30T19:33:17.596Z,79.40
2019-01-30T19:35:52.268Z,79.60
2019-01-30T19:38:23.518Z,79.50
2019-01-30T19:40:55.838Z,79.60
2019-01-30T19:43:28.183Z,80.00
2019-01-30T19:46:00.474Z,81.90
2019-01-30T19:48:32.812Z,80.60
2019-01-30T19:51:05.451Z,80.50
2019-01-30T19:53:37.703Z,79.20
2019-01-30T19:56:10.433Z,79.60
2019-01-30T19:58:42.709Z,78.90
2019-01-30T20:01:15.161Z,78.90
2019-01-30T20:03:47.510Z,79.00
2019-01-30T20:06:20.349Z,79.30
2019-01-30T20:08:52.649Z,79.60
2019-01-30T20:11:25.096Z,79.60
2019-01-30T20:13:57.732Z,81.20
2019-01-30T20:16:30.544Z,82.70
2019-01-30T20:19:03.138Z,84.80
2019-01-30T20:21:35.657Z,85.20
2019-01-30T20:24:08.096Z,85.70
2019-01-30T20:26:40.711Z,85.60
2019-01-30T20:29:13.379Z,84.30
2019-01-30T20:31:45.821Z,82.90
2019-01-30T20:34:18.425Z,82.20
2019-01-30T20:36:50.781Z,81.50
2019-01-30T20:39:23.115Z,82.10
2019-01-30T20:41:55.437Z,81.40
2019-01-30T20:44:28.020Z,81.70
2019-01-30T20:47:00.378Z,81.80
2019-01-30T20:49:33.265Z,81.20
2019-01-30T20:52:05.603Z,80.90
2019-01-30T20:54:38.227Z,80.90
2019-01-30T20:57:10.730Z,81.20
2019-01-30T20:59:43.257Z,82.20
2019-01-30T21:02:15.829Z,82.70
2019-01-30T21:04:48.148Z,82.00
2019-01-30T21:07:20.619Z,81.90
2019-01-30T21:09:53.402Z,82.00
2019-01-30T21:12:25.821Z,82.00
2019-01-30T21:14:58.478Z,81.60
2019-01-30T21:17:31.599Z,82.40
2019-01-30T21:20:04.080Z,82.10
2019-01-30T21:22:36.542Z,81.80
2019-01-30T21:25:11.035Z,82.30
2019-01-30T21:27:43.748Z,82.00
2019-01-30T21:30:18.831Z,82.00
2019-01-30T21:32:51.384Z,81.90
2019-01-30T21:35:23.781Z,82.50
2019-01-30T21:37:56.463Z,82.70
2019-01-30T21:40:28.776Z,83.00
2019-01-30T21:43:01.470Z,83.20
2019-01-30T21:45:33.790Z,83.50
2019-01-30T21:48:06.444Z,83.50
2019-01-30T21:50:38.732Z,83.60
2019-01-30T21:53:11.148Z,84.70
2019-01-30T21:55:43.438Z,84.50
2019-01-30T21:58:15.764Z,83.40
2019-01-30T22:00:48.010Z,84.70
2019-01-30T22:03:20.953Z,84.00
2019-01-30T22:05:54.146Z,84.00
2019-01-30T22:08:26.800Z,83.70
2019-01-30T22:10:59.132Z,85.00
2019-01-30T22:13:34.561Z,84.60
2019-01-30T22:16:07.559Z,84.50
2019-01-30T22:18:39.961Z,83.70
2019-01-30T22:21:12.250Z,83.50
2019-01-30T22:23:44.827Z,84.00
2019-01-30T22:26:17.108Z,84.80
2019-01-30T22:28:50.084Z,84.80
2019-01-30T22:31:22.750Z,85.20
2019-01-30T22:33:55.196Z,84.40
2019-01-30T22:36:27.584Z,84.50
2019-01-30T22:39:00.305Z,83.90
2019-01-30T22:41:33.803Z,84.80
2019-01-30T22:44:06.216Z,84.80
2019-01-30T22:46:38.596Z,84.30
2019-01-30T22:49:11.289Z,84.20
2019-01-30T22:51:44.786Z,84.80
2019-01-30T22:54:17.828Z,84.30
2019-01-30T22:56:50.452Z,84.50
2019-01-30T22:59:22.929Z,84.00
2019-01-30T23:01:55.971Z,84.30
2019-01-30T23:04:31.159Z,84.00
2019-01-30T23:07:06.090Z,84.20
2019-01-30T23:09:41.121Z,84.30
2019-01-30T23:12:15.690Z,84.50
2019-01-30T23:14:50.625Z,85.00
2019-01-30T23:17:25.719Z,84.60
2019-01-30T23:20:00.975Z,85.00
2019-01-30T23:22:35.994Z,84.40
2019-01-30T23:25:10.923Z,84.20
2019-01-30T23:27:45.763Z,84.40
2019-01-30T23:30:20.741Z,84.80
2019-01-30T23:32:55.721Z,86.10
2019-01-30T23:35:30.191Z,86.60
2019-01-30T23:38:05.382Z,85.40
2019-01-30T23:40:40.314Z,85.10
2019-01-30T23:43:15.757Z,86.10
2019-01-30T23:45:50.693Z,87.10
2019-01-30T23:48:26.445Z,86.60
2019-01-30T23:51:00.871Z,85.70
2019-01-30T23:53:36.308Z,86.10
2019-01-30T23:56:11.343Z,86.10
2019-01-30T23:58:46.481Z,85.90
